createdAt,value
2018-12-08T00:01:47.205Z,7.70
2018-12-08T00:04:15.332Z,7.70
2018-12-08T00:06:43.532Z,7.70
2018-12-08T00:09:11.780Z,7.60
2018-12-08T00:11:39.958Z,7.60
2018-12-08T00:14:08.155Z,7.60
2018-12-08T00:16:36.400Z,7.50
2018-12-08T00:19:04.585Z,7.50
2018-12-08T00:21:33.045Z,7.50
2018-12-08T00:24:01.159Z,7.50
2018-12-08T00:26:29.336Z,7.50
2018-12-08T00:28:57.496Z,7.50
2018-12-08T00:31:51.148Z,7.50
2018-12-08T00:34:19.341Z,7.50
2018-12-08T00:36:47.492Z,7.50
2018-12-08T00:39:15.670Z,7.50
2018-12-08T00:41:43.881Z,7.50
2018-12-08T00:44:12.021Z,7.50
2018-12-08T00:46:40.188Z,7.60
2018-12-08T00:49:08.490Z,7.60
2018-12-08T00:51:36.636Z,7.60
2018-12-08T00:54:06.841Z,7.60
2018-12-08T00:56:35.836Z,7.60
2018-12-08T00:59:04.028Z,7.50
2018-12-08T01:01:32.200Z,7.50
2018-12-08T01:04:00.417Z,7.50
2018-12-08T01:06:28.596Z,7.40
2018-12-08T01:08:56.716Z,7.40
2018-12-08T01:11:24.916Z,7.30
2018-12-08T01:13:53.069Z,7.30
2018-12-08T01:16:21.238Z,7.30
2018-12-08T01:18:49.443Z,7.30
2018-12-08T01:21:17.685Z,7.40
2018-12-08T01:23:45.875Z,7.30
2018-12-08T01:26:14.072Z,7.30
2018-12-08T01:28:42.211Z,7.30
2018-12-08T01:31:10.449Z,7.30
2018-12-08T01:33:38.685Z,7.30
2018-12-08T01:36:06.836Z,7.30
2018-12-08T01:38:35.168Z,7.20
2018-12-08T01:41:03.412Z,7.20
2018-12-08T01:43:31.660Z,7.20
2018-12-08T01:45:59.832Z,7.20
2018-12-08T01:48:28.042Z,7.20
2018-12-08T01:50:56.204Z,7.20
2018-12-08T01:53:24.373Z,7.10
2018-12-08T01:55:52.572Z,7.10
2018-12-08T01:58:20.722Z,7.10
2018-12-08T02:00:48.996Z,7.10
2018-12-08T02:03:17.196Z,7.10
2018-12-08T02:05:45.354Z,7.00
2018-12-08T02:08:13.522Z,7.00
2018-12-08T02:10:41.729Z,6.90
2018-12-08T02:13:09.967Z,6.80
2018-12-08T02:15:38.144Z,6.70
2018-12-08T02:18:06.349Z,6.60
2018-12-08T02:20:34.612Z,6.50
2018-12-08T02:23:02.756Z,6.40
2018-12-08T02:25:30.913Z,6.30
2018-12-08T02:27:59.117Z,6.20
2018-12-08T02:30:27.333Z,6.20
2018-12-08T02:32:55.530Z,6.10
2018-12-08T02:35:23.737Z,6.00
2018-12-08T02:37:51.896Z,6.00
2018-12-08T02:40:20.098Z,5.90
2018-12-08T02:42:48.349Z,5.90
2018-12-08T02:45:16.510Z,5.80
2018-12-08T02:47:44.710Z,5.70
2018-12-08T02:50:12.976Z,5.60
2018-12-08T02:52:41.175Z,5.50
2018-12-08T02:55:09.473Z,5.50
2018-12-08T02:57:37.702Z,5.50
2018-12-08T03:00:05.956Z,5.50
2018-12-08T03:02:34.169Z,5.50
2018-12-08T03:05:02.317Z,5.50
2018-12-08T03:07:30.494Z,5.50
2018-12-08T03:09:58.793Z,5.60
2018-12-08T03:12:26.937Z,5.60
2018-12-08T03:14:55.092Z,5.70
2018-12-08T03:17:23.245Z,5.70
2018-12-08T03:19:51.437Z,5.70
2018-12-08T03:22:19.677Z,5.70
2018-12-08T03:24:47.841Z,5.80
2018-12-08T03:27:16.056Z,5.80
2018-12-08T03:29:44.237Z,5.90
2018-12-08T03:32:12.439Z,5.90
2018-12-08T03:34:40.686Z,5.90
2018-12-08T03:37:08.962Z,5.90
2018-12-08T03:39:37.170Z,5.90
2018-12-08T03:42:05.314Z,5.90
2018-12-08T03:44:33.596Z,5.90
2018-12-08T03:47:01.785Z,5.90
2018-12-08T03:49:30.024Z,5.90
2018-12-08T03:51:58.205Z,5.90
2018-12-08T03:54:26.405Z,5.90
2018-12-08T03:56:54.555Z,5.90
2018-12-08T03:59:22.831Z,5.90
2018-12-08T04:01:51.033Z,5.80
2018-12-08T04:04:19.209Z,5.80
2018-12-08T04:06:47.369Z,5.70
2018-12-08T04:09:15.572Z,5.70
2018-12-08T04:11:43.716Z,5.60
2018-12-08T04:14:11.885Z,5.60
2018-12-08T04:16:40.188Z,5.60
2018-12-08T04:19:08.340Z,5.50
2018-12-08T04:21:36.481Z,5.50
2018-12-08T04:24:04.790Z,5.40
2018-12-08T04:26:32.934Z,5.40
2018-12-08T04:29:01.217Z,5.30
2018-12-08T04:31:29.514Z,5.20
2018-12-08T04:33:57.656Z,5.20
2018-12-08T04:36:25.837Z,5.20
2018-12-08T04:38:54.033Z,5.20
2018-12-08T04:41:22.280Z,5.20
2018-12-08T04:43:50.481Z,5.10
2018-12-08T04:46:18.701Z,5.20
2018-12-08T04:48:46.906Z,5.10
2018-12-08T04:51:15.077Z,5.10
2018-12-08T04:53:43.272Z,5.10
2018-12-08T04:56:11.425Z,5.10
2018-12-08T04:58:39.602Z,5.10
2018-12-08T05:01:07.877Z,5.20
2018-12-08T05:03:36.052Z,5.20
2018-12-08T05:06:04.224Z,5.10
2018-12-08T05:08:32.430Z,5.20
2018-12-08T05:11:00.576Z,5.20
2018-12-08T05:13:28.749Z,5.20
2018-12-08T05:15:56.932Z,5.20
2018-12-08T05:18:25.108Z,5.20
2018-12-08T05:20:53.284Z,5.20
2018-12-08T05:23:21.523Z,5.20
2018-12-08T05:25:49.689Z,5.20
2018-12-08T05:28:17.904Z,5.20
2018-12-08T05:30:46.116Z,5.20
2018-12-08T05:33:14.254Z,5.10
2018-12-08T05:35:42.401Z,5.20
2018-12-08T05:38:10.630Z,5.10
2018-12-08T05:40:38.776Z,5.10
2018-12-08T05:43:06.916Z,5.10
2018-12-08T05:45:35.125Z,5.10
2018-12-08T05:48:03.269Z,5.10
2018-12-08T05:50:31.453Z,5.10
2018-12-08T05:52:59.757Z,5.20
2018-12-08T05:55:27.889Z,5.20
2018-12-08T05:57:56.080Z,5.20
2018-12-08T06:00:24.641Z,5.20
2018-12-08T06:02:52.828Z,5.20
2018-12-08T06:05:20.997Z,5.20
2018-12-08T06:07:49.196Z,5.30
2018-12-08T06:10:17.336Z,5.30
2018-12-08T06:12:45.522Z,5.30
2018-12-08T06:15:13.717Z,5.30
2018-12-08T06:17:41.962Z,5.30
2018-12-08T06:20:10.140Z,5.40
2018-12-08T06:22:38.337Z,5.30
2018-12-08T06:25:08.553Z,5.30
2018-12-08T06:27:46.532Z,5.30
2018-12-08T06:30:14.721Z,5.30
2018-12-08T06:32:42.880Z,5.30
2018-12-08T06:35:11.096Z,5.30
2018-12-08T06:37:39.229Z,5.30
2018-12-08T06:40:07.405Z,5.40
2018-12-08T06:42:35.608Z,5.40
2018-12-08T06:45:03.752Z,5.40
2018-12-08T06:47:31.929Z,5.40
2018-12-08T06:50:00.236Z,5.40
2018-12-08T06:52:28.376Z,5.50
2018-12-08T06:54:56.544Z,5.50
2018-12-08T06:57:24.748Z,5.50
2018-12-08T06:59:52.897Z,5.50
2018-12-08T07:02:21.073Z,5.50
2018-12-08T07:04:49.264Z,5.50
2018-12-08T07:07:17.414Z,5.50
2018-12-08T07:09:45.589Z,5.50
2018-12-08T07:12:13.792Z,5.50
2018-12-08T07:14:42.038Z,5.50
2018-12-08T07:17:10.212Z,5.50
2018-12-08T07:19:38.424Z,5.50
2018-12-08T07:22:06.561Z,5.50
2018-12-08T07:24:34.733Z,5.50
2018-12-08T07:27:02.864Z,5.50
2018-12-08T07:29:31.081Z,5.50
2018-12-08T07:31:59.264Z,5.60
2018-12-08T07:34:27.457Z,5.80
2018-12-08T07:36:55.617Z,5.80
2018-12-08T07:39:23.777Z,6.00
2018-12-08T07:41:51.998Z,6.10
2018-12-08T07:44:20.112Z,6.10
2018-12-08T07:46:48.389Z,6.20
2018-12-08T07:49:16.593Z,6.20
2018-12-08T07:51:44.768Z,6.30
2018-12-08T07:54:12.914Z,6.30
2018-12-08T07:56:41.316Z,6.30
2018-12-08T07:59:09.468Z,6.30
2018-12-08T08:01:37.641Z,6.30
2018-12-08T08:04:05.880Z,6.40
2018-12-08T08:06:34.080Z,6.40
2018-12-08T08:09:02.336Z,6.40
2018-12-08T08:11:30.560Z,6.40
2018-12-08T08:13:58.709Z,6.40
2018-12-08T08:16:26.891Z,6.50
2018-12-08T08:18:55.089Z,6.60
2018-12-08T08:21:23.288Z,6.70
2018-12-08T08:23:51.405Z,6.70
2018-12-08T08:26:19.545Z,6.80
2018-12-08T08:28:47.740Z,7.00
2018-12-08T08:31:15.925Z,7.10
2018-12-08T08:34:47.220Z,7.20
2018-12-08T08:37:15.346Z,7.40
2018-12-08T08:39:43.625Z,7.90
2018-12-08T08:42:11.860Z,7.90
2018-12-08T08:44:40.078Z,7.90
2018-12-08T08:47:08.361Z,7.80
2018-12-08T08:49:36.544Z,7.90
2018-12-08T08:52:04.696Z,8.60
2018-12-08T08:54:32.872Z,9.90
2018-12-08T08:57:01.105Z,10.70
2018-12-08T08:59:29.321Z,10.90
2018-12-08T09:01:57.505Z,10.50
2018-12-08T09:04:28.756Z,10.20
2018-12-08T09:06:57.017Z,9.80
2018-12-08T09:09:25.266Z,9.30
2018-12-08T09:11:53.542Z,9.70
2018-12-08T09:14:21.790Z,10.70
2018-12-08T09:16:50.264Z,10.60
2018-12-08T09:19:18.436Z,10.80
2018-12-08T09:21:46.677Z,11.40
2018-12-08T09:24:14.840Z,11.10
2018-12-08T09:26:42.993Z,12.00
2018-12-08T09:29:11.193Z,12.80
2018-12-08T09:31:39.373Z,14.20
2018-12-08T09:34:07.647Z,14.80
2018-12-08T09:36:35.917Z,15.00
2018-12-08T09:39:06.102Z,15.20
2018-12-08T09:41:34.332Z,15.50
2018-12-08T09:44:06.546Z,15.80
2018-12-08T09:46:34.812Z,15.40
2018-12-08T09:49:02.925Z,15.10
2018-12-08T09:51:31.208Z,15.00
2018-12-08T09:53:59.421Z,14.70
2018-12-08T09:56:27.886Z,14.10
2018-12-08T09:58:55.993Z,12.50
2018-12-08T10:01:24.202Z,11.50
2018-12-08T10:03:52.349Z,10.90
2018-12-08T10:06:20.522Z,10.70
2018-12-08T10:08:48.788Z,11.30
2018-12-08T10:11:16.968Z,11.80
2018-12-08T10:13:47.065Z,11.50
2018-12-08T10:16:16.372Z,11.30
2018-12-08T10:18:44.941Z,11.50
2018-12-08T10:21:13.386Z,12.30
2018-12-08T10:23:41.557Z,12.70
2018-12-08T10:26:09.703Z,12.50
2018-12-08T10:28:37.880Z,12.10
2018-12-08T10:31:06.121Z,12.00
2018-12-08T10:33:34.347Z,12.20
2018-12-08T10:36:02.615Z,12.00
2018-12-08T10:38:30.834Z,11.70
2018-12-08T10:40:59.120Z,11.30
2018-12-08T10:43:27.278Z,11.00
2018-12-08T10:45:55.541Z,10.90
2018-12-08T10:48:23.681Z,10.60
2018-12-08T10:50:51.852Z,10.20
2018-12-08T10:53:20.045Z,9.90
2018-12-08T10:55:48.565Z,9.70
2018-12-08T10:58:17.882Z,9.60
2018-12-08T11:01:11.842Z,9.40
2018-12-08T11:03:50.219Z,9.30
2018-12-08T11:06:19.856Z,9.40
2018-12-08T11:08:49.717Z,9.50
2018-12-08T11:11:19.676Z,9.50
2018-12-08T11:13:50.264Z,9.40
2018-12-08T11:16:20.385Z,9.40
2018-12-08T11:18:50.363Z,9.50
2018-12-08T11:21:18.636Z,10.00
2018-12-08T11:23:46.809Z,11.30
2018-12-08T11:26:17.333Z,12.60
2018-12-08T11:28:45.612Z,12.80
2018-12-08T11:31:13.811Z,12.10
2018-12-08T11:33:42.014Z,11.60
2018-12-08T11:36:10.174Z,10.90
2018-12-08T11:38:38.446Z,10.40
2018-12-08T11:41:06.720Z,10.00
2018-12-08T11:43:35.465Z,9.80
2018-12-08T11:46:03.620Z,9.70
2018-12-08T11:48:31.753Z,9.50
2018-12-08T11:50:59.933Z,9.50
2018-12-08T11:53:28.169Z,9.50
2018-12-08T11:55:56.422Z,9.40
2018-12-08T11:58:24.663Z,9.40
2018-12-08T12:00:53.065Z,9.30
2018-12-08T12:03:21.312Z,9.30
2018-12-08T12:05:50.645Z,9.30
2018-12-08T12:08:18.914Z,9.30
2018-12-08T12:10:47.117Z,9.30
2018-12-08T12:13:15.322Z,9.30
2018-12-08T12:15:44.334Z,9.20
2018-12-08T12:18:12.543Z,9.10
2018-12-08T12:20:40.817Z,9.20
2018-12-08T12:23:09.081Z,9.20
2018-12-08T12:25:37.273Z,9.10
2018-12-08T12:28:05.620Z,9.10
2018-12-08T12:30:33.812Z,9.00
2018-12-08T12:33:01.945Z,9.00
2018-12-08T12:35:30.139Z,8.90
2018-12-08T12:37:58.349Z,8.90
2018-12-08T12:40:26.597Z,8.90
2018-12-08T12:42:54.776Z,8.90
2018-12-08T12:45:23.054Z,9.00
2018-12-08T12:47:51.182Z,9.00
2018-12-08T12:50:19.359Z,8.90
2018-12-08T12:52:47.801Z,8.90
2018-12-08T12:55:16.054Z,8.80
2018-12-08T12:57:44.264Z,8.90
2018-12-08T13:00:13.337Z,9.00
2018-12-08T13:02:41.477Z,9.00
2018-12-08T13:05:09.633Z,8.80
2018-12-08T13:07:37.816Z,8.80
2018-12-08T13:10:06.348Z,8.70
2018-12-08T13:12:34.652Z,8.60
2018-12-08T13:15:02.977Z,8.60
2018-12-08T13:17:31.104Z,8.60
2018-12-08T13:19:59.279Z,8.50
2018-12-08T13:22:28.057Z,8.40
2018-12-08T13:25:06.445Z,8.50
2018-12-08T13:27:34.585Z,8.60
2018-12-08T13:30:02.743Z,8.60
2018-12-08T13:32:30.928Z,8.50
2018-12-08T13:34:59.149Z,8.40
2018-12-08T13:37:27.381Z,8.40
2018-12-08T13:39:55.525Z,8.40
2018-12-08T13:42:23.833Z,8.30
2018-12-08T13:45:19.225Z,8.20
2018-12-08T13:47:47.420Z,8.20
2018-12-08T13:50:15.564Z,8.10
2018-12-08T13:52:43.732Z,8.00
2018-12-08T13:55:11.940Z,8.00
2018-12-08T13:57:40.157Z,7.90
2018-12-08T14:00:09.237Z,7.80
2018-12-08T14:02:37.507Z,7.80
2018-12-08T14:05:06.510Z,7.70
2018-12-08T14:07:34.725Z,7.60
2018-12-08T14:10:02.933Z,7.60
2018-12-08T14:12:31.073Z,7.50
2018-12-08T14:14:59.249Z,7.50
2018-12-08T14:17:27.452Z,7.40
2018-12-08T14:19:55.700Z,7.40
2018-12-08T14:22:23.878Z,7.40
2018-12-08T14:24:52.089Z,7.40
2018-12-08T14:27:20.224Z,7.40
2018-12-08T14:29:49.415Z,7.40
2018-12-08T14:32:17.676Z,7.30
2018-12-08T14:34:45.855Z,7.40
2018-12-08T14:37:14.076Z,7.40
2018-12-08T14:39:42.248Z,7.40
2018-12-08T14:42:10.380Z,7.40
2018-12-08T14:44:38.552Z,7.40
2018-12-08T14:47:06.768Z,7.40
2018-12-08T14:49:34.913Z,7.40
2018-12-08T14:52:03.077Z,7.40
2018-12-08T14:54:31.282Z,7.40
2018-12-08T14:56:59.424Z,7.40
2018-12-08T14:59:27.642Z,7.40
2018-12-08T15:01:55.839Z,7.50
2018-12-08T15:04:24.200Z,7.40
2018-12-08T15:06:52.756Z,7.40
2018-12-08T15:09:21.524Z,7.40
2018-12-08T15:11:49.684Z,7.40
2018-12-08T15:14:17.861Z,7.30
2018-12-08T15:16:46.132Z,7.30
2018-12-08T15:19:14.425Z,7.20
2018-12-08T15:21:42.613Z,7.20
2018-12-08T15:24:10.813Z,7.10
2018-12-08T15:26:39.072Z,7.00
2018-12-08T15:29:07.189Z,7.00
2018-12-08T15:31:35.433Z,7.00
2018-12-08T15:34:03.560Z,7.10
2018-12-08T15:37:34.941Z,7.00
2018-12-08T15:40:03.121Z,7.00
2018-12-08T15:42:31.286Z,7.00
2018-12-08T15:44:59.583Z,7.00
2018-12-08T15:47:27.719Z,7.10
2018-12-08T15:49:56.005Z,7.10
2018-12-08T15:52:24.238Z,7.10
2018-12-08T15:54:52.441Z,7.10
2018-12-08T15:57:20.728Z,7.10
2018-12-08T15:59:48.920Z,7.10
2018-12-08T16:02:17.061Z,7.10
2018-12-08T16:04:45.241Z,7.10
2018-12-08T16:07:13.437Z,7.10
2018-12-08T16:09:41.605Z,7.00
2018-12-08T16:12:09.755Z,7.00
2018-12-08T16:14:37.966Z,7.00
2018-12-08T16:17:06.105Z,7.00
2018-12-08T16:19:34.273Z,7.00
2018-12-08T16:22:02.488Z,7.00
2018-12-08T16:24:30.617Z,7.00
2018-12-08T16:26:58.788Z,7.00
2018-12-08T16:29:26.929Z,7.00
2018-12-08T16:31:55.144Z,7.00
2018-12-08T16:34:23.313Z,7.10
2018-12-08T16:36:51.530Z,7.10
2018-12-08T16:39:19.671Z,7.10
2018-12-08T16:41:47.925Z,7.10
2018-12-08T16:44:16.236Z,7.20
2018-12-08T16:46:44.385Z,7.20
2018-12-08T16:49:12.656Z,7.20
2018-12-08T16:51:40.856Z,7.20
2018-12-08T16:54:09.013Z,7.20
2018-12-08T16:56:37.183Z,7.20
2018-12-08T16:59:05.385Z,7.20
2018-12-08T17:01:33.526Z,7.30
2018-12-08T17:04:01.697Z,7.30
2018-12-08T17:06:30.009Z,7.30
2018-12-08T17:08:58.149Z,7.30
2018-12-08T17:11:27.846Z,7.30
2018-12-08T17:13:56.357Z,7.40
2018-12-08T17:16:24.621Z,7.40
2018-12-08T17:18:52.885Z,7.40
2018-12-08T17:21:21.113Z,7.40
2018-12-08T17:23:49.262Z,7.50
2018-12-08T17:26:17.532Z,7.50
2018-12-08T17:28:45.721Z,7.50
2018-12-08T17:31:13.933Z,7.50
2018-12-08T17:33:42.159Z,7.50
2018-12-08T17:36:10.337Z,7.40
2018-12-08T17:38:38.489Z,7.40
2018-12-08T17:41:06.668Z,7.50
2018-12-08T17:43:34.888Z,7.40
2018-12-08T17:46:03.124Z,7.50
2018-12-08T17:48:31.304Z,7.50
2018-12-08T17:51:00.704Z,7.50
2018-12-08T17:53:29.085Z,7.50
2018-12-08T17:55:57.237Z,7.50
2018-12-08T17:58:25.453Z,7.50
2018-12-08T18:00:53.750Z,7.50
2018-12-08T18:03:21.857Z,7.50
2018-12-08T18:05:50.094Z,7.50
2018-12-08T18:08:18.317Z,7.50
2018-12-08T18:10:46.485Z,7.50
2018-12-08T18:13:14.709Z,7.50
2018-12-08T18:15:42.929Z,7.50
2018-12-08T18:18:11.117Z,7.60
2018-12-08T18:20:39.322Z,7.60
2018-12-08T18:23:07.450Z,7.60
2018-12-08T18:25:35.640Z,7.60
2018-12-08T18:28:03.849Z,7.60
2018-12-08T18:30:32.080Z,7.50
2018-12-08T18:33:00.262Z,7.50
2018-12-08T18:35:28.464Z,7.50
2018-12-08T18:37:56.597Z,7.50
2018-12-08T18:40:24.764Z,7.50
2018-12-08T18:42:52.985Z,7.40
2018-12-08T18:45:21.229Z,7.40
2018-12-08T18:47:49.397Z,7.40
2018-12-08T18:50:17.623Z,7.40
2018-12-08T18:52:45.841Z,7.50
2018-12-08T18:55:14.021Z,7.40
2018-12-08T18:57:42.225Z,7.50
2018-12-08T19:00:11.734Z,7.40
2018-12-08T19:02:39.900Z,7.50
2018-12-08T19:05:08.612Z,7.50
2018-12-08T19:07:37.054Z,7.50
2018-12-08T19:10:05.388Z,7.50
2018-12-08T19:12:33.617Z,7.50
2018-12-08T19:15:01.768Z,7.60
2018-12-08T19:17:29.940Z,7.60
2018-12-08T19:19:58.141Z,7.60
2018-12-08T19:22:26.284Z,7.60
2018-12-08T19:24:54.457Z,7.60
2018-12-08T19:27:22.677Z,7.60
2018-12-08T19:29:50.793Z,7.60
2018-12-08T19:32:18.976Z,7.60
2018-12-08T19:34:47.237Z,7.60
2018-12-08T19:37:15.424Z,7.50
2018-12-08T19:39:43.633Z,7.50
2018-12-08T19:42:11.812Z,7.50
2018-12-08T19:44:39.948Z,7.40
2018-12-08T19:47:08.113Z,7.50
2018-12-08T19:49:36.333Z,7.40
2018-12-08T19:52:04.692Z,7.40
2018-12-08T19:54:32.834Z,7.50
2018-12-08T19:57:01.045Z,7.50
2018-12-08T19:59:29.194Z,7.50
2018-12-08T20:01:57.468Z,7.50
2018-12-08T20:04:25.651Z,7.50
2018-12-08T20:06:53.869Z,7.50
2018-12-08T20:09:22.225Z,7.50
2018-12-08T20:11:50.393Z,7.60
2018-12-08T20:14:18.525Z,7.60
2018-12-08T20:16:46.697Z,7.60
2018-12-08T20:19:14.948Z,7.60
2018-12-08T20:21:43.973Z,7.60
2018-12-08T20:24:12.156Z,7.60
2018-12-08T20:26:40.525Z,7.60
2018-12-08T20:29:08.737Z,7.60
2018-12-08T20:31:36.868Z,7.60
2018-12-08T20:34:05.077Z,7.60
2018-12-08T20:36:33.217Z,7.50
2018-12-08T20:39:01.420Z,7.50
2018-12-08T20:41:30.129Z,7.50
2018-12-08T20:43:58.373Z,7.60
2018-12-08T20:46:26.552Z,7.50
2018-12-08T20:48:54.721Z,7.60
2018-12-08T20:51:22.869Z,7.60
2018-12-08T20:53:51.060Z,7.60
2018-12-08T20:56:19.236Z,7.60
2018-12-08T20:58:47.486Z,7.60
2018-12-08T21:01:15.659Z,7.60
2018-12-08T21:03:43.873Z,7.70
2018-12-08T21:06:12.012Z,7.70
2018-12-08T21:08:40.196Z,7.70
2018-12-08T21:11:08.393Z,7.60
2018-12-08T21:13:36.615Z,7.70
2018-12-08T21:16:04.833Z,7.70
2018-12-08T21:18:33.000Z,7.70
2018-12-08T21:21:01.181Z,7.70
2018-12-08T21:23:29.329Z,7.70
2018-12-08T21:25:57.544Z,7.80
2018-12-08T21:28:25.741Z,7.80
2018-12-08T21:30:53.854Z,7.80
2018-12-08T21:33:22.074Z,7.80
2018-12-08T21:35:50.378Z,7.80
2018-12-08T21:38:18.585Z,7.80
2018-12-08T21:40:46.831Z,7.80
2018-12-08T21:43:15.064Z,7.90
2018-12-08T21:45:43.296Z,7.90
2018-12-08T21:48:11.500Z,7.90
2018-12-08T21:50:39.676Z,8.00
2018-12-08T21:53:07.820Z,7.90
2018-12-08T21:55:36.027Z,7.90
2018-12-08T21:58:04.263Z,7.90
2018-12-08T22:00:32.545Z,7.90
2018-12-08T22:03:00.753Z,7.90
2018-12-08T22:05:28.925Z,7.90
2018-12-08T22:07:57.073Z,7.90
2018-12-08T22:10:25.465Z,7.90
2018-12-08T22:12:53.659Z,7.90
2018-12-08T22:15:21.803Z,7.90
2018-12-08T22:17:49.992Z,7.80
2018-12-08T22:20:18.182Z,7.80
2018-12-08T22:22:47.424Z,7.70
2018-12-08T22:25:15.646Z,7.70
2018-12-08T22:27:44.106Z,7.60
2018-12-08T22:30:12.228Z,7.60
2018-12-08T22:32:40.578Z,7.60
2018-12-08T22:35:09.024Z,7.50
2018-12-08T22:37:37.197Z,7.50
2018-12-08T22:40:05.777Z,7.50
2018-12-08T22:42:33.953Z,7.50
2018-12-08T22:45:02.122Z,7.50
2018-12-08T22:47:30.418Z,7.60
2018-12-08T22:49:58.600Z,7.60
2018-12-08T22:52:26.856Z,7.60
2018-12-08T22:54:55.065Z,7.70
2018-12-08T22:57:23.212Z,7.60
2018-12-08T22:59:51.412Z,7.70
2018-12-08T23:02:19.593Z,7.70
2018-12-08T23:04:47.709Z,7.70
2018-12-08T23:07:15.896Z,7.70
2018-12-08T23:09:44.093Z,7.70
2018-12-08T23:12:12.344Z,7.80
2018-12-08T23:14:40.613Z,7.80
2018-12-08T23:17:09.060Z,7.80
2018-12-08T23:19:37.265Z,7.80
2018-12-08T23:22:05.436Z,7.80
2018-12-08T23:24:33.664Z,7.80
2018-12-08T23:27:01.892Z,7.80
2018-12-08T23:29:31.090Z,7.80
2018-12-08T23:31:59.292Z,7.90
2018-12-08T23:34:27.468Z,7.90
2018-12-08T23:36:55.740Z,7.90
2018-12-08T23:39:23.928Z,7.90
2018-12-08T23:41:52.079Z,7.90
2018-12-08T23:44:20.345Z,7.90
2018-12-08T23:46:48.540Z,7.90
2018-12-08T23:49:16.669Z,7.90
2018-12-08T23:51:44.788Z,8.00
2018-12-08T23:54:12.970Z,8.00
2018-12-08T23:56:41.106Z,8.10
2018-12-08T23:59:09.272Z,8.10
